createdAt,value
2023-04-16T00:02:07.892Z,10.13
2023-04-16T00:04:34.719Z,9.73
2023-04-16T00:07:01.383Z,9.52
2023-04-16T00:09:28.067Z,10.75
2023-04-16T00:11:54.749Z,7.85
2023-04-16T00:14:21.379Z,9.20
2023-04-16T00:16:48.048Z,9.15
2023-04-16T00:19:14.749Z,8.88
2023-04-16T00:21:41.378Z,8.40
2023-04-16T00:24:08.137Z,7.63
2023-04-16T00:26:34.776Z,7.40
2023-04-16T00:29:01.643Z,7.53
2023-04-16T00:31:29.677Z,7.15
2023-04-16T00:33:57.060Z,7.75
2023-04-16T00:36:24.972Z,8.73
2023-04-16T00:38:51.821Z,8.75
2023-04-16T00:41:18.531Z,8.23
2023-04-16T00:43:45.651Z,7.38
2023-04-16T00:46:12.879Z,8.15
2023-04-16T00:48:41.633Z,7.40
2023-04-16T00:51:09.172Z,7.25
2023-04-16T00:53:36.555Z,7.43
2023-04-16T00:56:05.121Z,7.22
2023-04-16T00:58:32.824Z,7.07
2023-04-16T01:00:59.857Z,7.72
2023-04-16T01:03:39.666Z,7.20
2023-04-16T01:06:07.647Z,7.47
2023-04-16T01:08:34.447Z,6.35
2023-04-16T01:11:01.448Z,7.72
2023-04-16T01:13:28.128Z,7.00
2023-04-16T01:15:55.038Z,7.57
2023-04-16T01:18:22.828Z,7.15
2023-04-16T01:20:50.427Z,7.18
2023-04-16T01:23:20.699Z,6.65
2023-04-16T01:25:47.692Z,7.07
2023-04-16T01:28:14.618Z,7.00
2023-04-16T01:30:41.649Z,7.63
2023-04-16T01:33:11.255Z,7.75
2023-04-16T01:35:38.745Z,7.75
2023-04-16T01:38:06.968Z,7.15
2023-04-16T01:40:34.432Z,7.72
2023-04-16T01:43:01.456Z,7.90
2023-04-16T01:45:28.097Z,8.18
2023-04-16T01:47:54.835Z,7.18
2023-04-16T01:50:22.316Z,7.20
2023-04-16T01:52:48.944Z,7.60
2023-04-16T01:55:15.876Z,8.25
2023-04-16T01:57:42.558Z,7.70
2023-04-16T02:00:09.520Z,7.65
2023-04-16T02:02:36.787Z,8.35
2023-04-16T02:05:03.706Z,7.72
2023-04-16T02:07:31.742Z,7.43
2023-04-16T02:09:58.369Z,6.63
2023-04-16T02:12:25.461Z,6.82
2023-04-16T02:14:52.077Z,6.82
2023-04-16T02:17:18.792Z,5.95
2023-04-16T02:19:45.440Z,6.22
2023-04-16T02:22:12.084Z,6.15
2023-04-16T02:24:38.658Z,6.28
2023-04-16T02:27:05.348Z,6.17
2023-04-16T02:34:26.494Z,6.65
2023-04-16T02:36:54.303Z,4.95
2023-04-16T02:39:21.053Z,6.10
2023-04-16T02:41:47.727Z,5.70
2023-04-16T02:44:14.337Z,5.32
2023-04-16T02:46:41.155Z,6.70
2023-04-16T02:49:07.963Z,6.30
2023-04-16T02:51:34.741Z,9.20
2023-04-16T02:54:03.100Z,7.82
2023-04-16T02:56:29.714Z,7.78
2023-04-16T02:58:56.510Z,6.60
2023-04-16T03:01:23.235Z,6.22
2023-04-16T03:03:49.979Z,6.35
2023-04-16T03:06:16.865Z,5.82
2023-04-16T03:08:43.445Z,5.82
2023-04-16T03:11:10.104Z,6.13
2023-04-16T03:13:36.712Z,5.88
2023-04-16T03:16:03.646Z,5.75
2023-04-16T03:18:30.501Z,6.20
2023-04-16T03:20:57.115Z,6.30
2023-04-16T04:22:21.226Z,7.05
2023-04-16T04:24:47.836Z,5.20
2023-04-16T04:27:14.482Z,5.30
2023-04-16T04:29:41.177Z,5.60
2023-04-16T04:32:07.950Z,4.95
2023-04-16T04:34:34.735Z,5.28
2023-04-16T04:37:01.562Z,4.93
2023-04-16T04:39:28.187Z,5.35
2023-04-16T04:41:54.858Z,5.10
2023-04-16T04:44:21.424Z,5.30
2023-04-16T04:46:48.083Z,5.35
2023-04-16T04:59:01.093Z,5.75
2023-04-16T05:01:27.703Z,6.47
2023-04-16T05:03:54.435Z,5.97
2023-04-16T05:06:21.384Z,5.80
2023-04-16T05:08:47.982Z,6.13
2023-04-16T05:11:14.649Z,6.20
2023-04-16T05:13:41.408Z,7.07
2023-04-16T05:16:08.028Z,7.97
2023-04-16T05:18:34.676Z,7.60
2023-04-16T05:21:01.270Z,7.90
2023-04-16T05:23:28.181Z,6.47
2023-04-16T05:25:54.838Z,7.07
2023-04-16T05:28:21.588Z,8.00
2023-04-16T05:43:01.334Z,6.07
2023-04-16T05:45:28.279Z,5.85
2023-04-16T05:47:55.126Z,5.35
2023-04-16T05:50:21.780Z,5.68
2023-04-16T05:52:48.552Z,5.50
2023-04-16T05:55:15.164Z,5.72
2023-04-16T05:57:41.800Z,6.43
2023-04-16T06:00:08.866Z,6.78
2023-04-16T06:02:36.003Z,6.68
2023-04-16T06:05:02.799Z,6.32
2023-04-16T06:07:29.506Z,5.80
2023-04-16T06:09:56.080Z,5.82
2023-04-16T06:12:22.747Z,6.35
2023-04-16T06:14:49.504Z,6.25
2023-04-16T06:17:16.724Z,5.78
2023-04-16T06:19:43.374Z,4.63
2023-04-16T06:22:10.220Z,5.55
2023-04-16T06:24:36.901Z,5.80
2023-04-16T06:27:03.557Z,5.80
2023-04-16T06:29:40.572Z,5.55
2023-04-16T06:32:08.395Z,5.93
2023-04-16T06:34:35.341Z,5.75
2023-04-16T06:37:02.004Z,6.00
2023-04-16T06:39:28.649Z,5.25
2023-04-16T06:41:56.355Z,4.78
2023-04-16T06:44:23.314Z,4.88
2023-04-16T06:46:51.253Z,4.50
2023-04-16T06:54:11.144Z,5.07
2023-04-16T06:56:37.918Z,4.93
2023-04-16T06:59:04.930Z,4.50
2023-04-16T07:01:31.822Z,5.00
2023-04-16T08:59:53.674Z,4.25
2023-04-16T09:02:20.919Z,2.15
2023-04-16T09:04:50.001Z,2.95
2023-04-16T09:07:18.222Z,2.10
2023-04-16T09:09:46.498Z,1.25
2023-04-16T09:12:13.222Z,1.90
2023-04-16T09:14:41.944Z,1.60
2023-04-16T09:17:11.218Z,1.50
2023-04-16T09:19:37.885Z,1.70
2023-04-16T09:22:04.564Z,6.00
2023-04-16T09:24:31.837Z,1.90
2023-04-16T09:26:59.980Z,1.73
2023-04-16T09:29:40.136Z,1.80
2023-04-16T09:32:11.689Z,3.08
2023-04-16T09:34:59.124Z,2.03
2023-04-16T09:37:30.031Z,2.60
2023-04-16T09:40:05.091Z,1.75
2023-04-16T09:42:35.089Z,1.80
2023-04-16T09:57:39.161Z,2.10
2023-04-16T10:00:09.155Z,2.00
2023-04-16T10:02:39.324Z,2.03
2023-04-16T10:05:06.534Z,1.30
2023-04-16T10:07:37.663Z,1.70
2023-04-16T10:29:46.973Z,1.50
2023-04-16T10:32:14.411Z,1.85
2023-04-16T10:34:41.428Z,2.10
2023-04-16T10:42:12.495Z,2.10
2023-04-16T10:44:45.024Z,2.33
2023-04-16T10:47:14.036Z,3.78
2023-04-16T10:49:41.717Z,2.65
2023-04-16T10:52:19.029Z,2.38
2023-04-16T10:54:47.877Z,3.10
2023-04-16T10:57:19.755Z,3.58
2023-04-16T10:59:49.169Z,4.75
2023-04-16T11:02:20.472Z,13.95
2023-04-16T11:04:49.321Z,2.45
2023-04-16T11:07:20.594Z,3.58
2023-04-16T11:09:51.346Z,3.30
2023-04-16T11:12:22.413Z,4.20
2023-04-16T11:14:54.481Z,3.30
2023-04-16T11:17:22.069Z,2.85
2023-04-16T11:19:49.331Z,3.05
2023-04-16T11:22:17.796Z,3.22
2023-04-16T11:24:47.709Z,3.40
2023-04-16T11:27:16.139Z,3.30
2023-04-16T11:29:44.563Z,3.15
2023-04-16T11:32:21.647Z,2.72
2023-04-16T11:34:48.472Z,2.58
2023-04-16T11:37:15.122Z,2.60
2023-04-16T11:39:52.328Z,2.58
2023-04-16T11:42:21.381Z,3.13
2023-04-16T11:44:52.372Z,3.85
2023-04-16T11:47:19.286Z,2.70
2023-04-16T11:49:45.945Z,2.35
2023-04-16T11:52:12.699Z,2.30
2023-04-16T11:54:39.311Z,1.70
2023-04-16T11:57:06.260Z,1.90
2023-04-16T11:59:33.474Z,2.05
2023-04-16T12:02:00.268Z,1.85
2023-04-16T12:04:27.565Z,1.90
2023-04-16T12:07:13.517Z,1.80
2023-04-16T12:09:42.368Z,1.77
2023-04-16T12:12:30.841Z,1.85
2023-04-16T12:15:00.269Z,1.50
2023-04-16T12:17:26.955Z,2.10
2023-04-16T12:19:59.076Z,1.90
2023-04-16T12:22:37.217Z,2.00
2023-04-16T12:25:06.195Z,1.63
2023-04-16T12:27:53.344Z,2.20
2023-04-16T12:30:22.928Z,1.98
2023-04-16T12:33:12.913Z,2.42
2023-04-16T12:35:41.955Z,1.52
2023-04-16T12:38:08.508Z,1.60
2023-04-16T12:40:36.215Z,1.50
2023-04-16T12:43:02.964Z,1.75
2023-04-16T12:45:29.771Z,1.45
2023-04-16T12:47:57.565Z,2.88
2023-04-16T12:50:24.464Z,2.10
2023-04-16T12:52:51.248Z,2.13
2023-04-16T12:57:44.806Z,2.08
2023-04-16T13:00:12.716Z,2.58
2023-04-16T13:02:40.167Z,3.15
2023-04-16T13:05:08.258Z,2.60
2023-04-16T13:07:35.315Z,2.25
2023-04-16T13:10:02.224Z,2.75
2023-04-16T13:12:29.017Z,2.38
2023-04-16T13:14:56.099Z,2.47
2023-04-16T13:17:22.794Z,3.60
2023-04-16T13:19:49.470Z,3.80
2023-04-16T13:22:16.144Z,2.60
2023-04-16T13:24:42.792Z,3.03
2023-04-16T13:27:09.540Z,2.80
2023-04-16T13:29:36.820Z,3.90
2023-04-16T13:32:04.125Z,2.38
2023-04-16T13:34:32.628Z,2.67
2023-04-16T13:36:59.373Z,3.03
2023-04-16T13:39:26.209Z,2.97
2023-04-16T13:41:52.853Z,1.90
2023-04-16T13:44:19.564Z,2.08
2023-04-16T13:46:47.917Z,1.92
2023-04-16T13:49:15.134Z,1.77
2023-04-16T13:51:45.001Z,1.58
2023-04-16T13:54:11.756Z,1.60
2023-04-16T13:56:38.700Z,1.33
2023-04-16T13:59:05.409Z,1.58
2023-04-16T14:01:32.110Z,1.85
2023-04-16T14:04:00.377Z,1.30
2023-04-16T14:06:27.181Z,1.77
2023-04-16T14:08:56.018Z,3.75
2023-04-16T14:11:23.630Z,6.28
2023-04-16T14:13:50.431Z,1.75
2023-04-16T14:16:17.055Z,1.23
2023-04-16T14:18:43.680Z,2.33
2023-04-16T14:21:10.349Z,1.20
2023-04-16T14:23:37.066Z,1.15
2023-04-16T14:26:03.898Z,1.10
2023-04-16T14:28:30.591Z,1.13
2023-04-16T14:30:57.255Z,1.40
2023-04-16T14:33:24.778Z,1.42
2023-04-16T14:35:52.024Z,1.88
2023-04-16T14:38:21.468Z,1.30
2023-04-16T14:40:48.922Z,1.10
2023-04-16T14:43:15.880Z,1.35
2023-04-16T14:45:42.570Z,1.05
2023-04-16T14:48:09.287Z,1.10
2023-04-16T14:50:37.960Z,1.15
2023-04-16T14:53:07.822Z,1.60
2023-04-16T14:55:34.667Z,1.23
2023-04-16T14:58:01.359Z,1.48
2023-04-16T15:00:28.216Z,1.00
2023-04-16T15:02:55.643Z,3.33
2023-04-16T15:05:22.611Z,2.03
2023-04-16T15:07:49.309Z,1.00
2023-04-16T15:10:16.028Z,1.60
2023-04-16T15:12:42.714Z,1.60
2023-04-16T15:15:09.872Z,1.23
2023-04-16T15:17:36.704Z,1.60
2023-04-16T15:20:08.204Z,1.77
2023-04-16T15:22:35.137Z,2.20
2023-04-16T15:25:01.870Z,1.33
2023-04-16T15:27:28.660Z,1.08
2023-04-16T15:29:55.455Z,1.10
2023-04-16T15:32:22.239Z,1.90
2023-04-16T15:34:49.011Z,3.10
2023-04-16T15:37:16.187Z,3.65
2023-04-16T15:39:43.248Z,3.60
2023-04-16T15:42:13.237Z,2.00
2023-04-16T15:44:40.622Z,1.70
2023-04-16T15:47:08.636Z,2.28
2023-04-16T15:49:36.045Z,2.25
2023-04-16T15:52:02.822Z,2.00
2023-04-16T15:54:31.025Z,2.53
2023-04-16T15:56:59.145Z,5.45
2023-04-16T15:59:26.821Z,2.78
2023-04-16T16:02:01.698Z,3.13
2023-04-16T16:04:35.148Z,2.10
2023-04-16T16:07:07.524Z,2.35
2023-04-16T16:09:40.253Z,3.20
2023-04-16T16:12:12.769Z,2.20
2023-04-16T16:14:44.283Z,2.80
2023-04-16T16:17:11.108Z,2.58
2023-04-16T16:19:37.727Z,2.28
2023-04-16T16:22:04.584Z,2.55
2023-04-16T16:24:34.035Z,2.30
2023-04-16T16:27:01.664Z,1.98
2023-04-16T16:29:28.344Z,6.93
2023-04-16T16:32:00.119Z,10.20
2023-04-16T16:34:34.806Z,1.88
2023-04-16T16:37:01.434Z,2.28
2023-04-16T16:39:28.078Z,2.80
2023-04-16T16:44:50.963Z,2.28
2023-04-16T16:47:17.711Z,1.98
2023-04-16T16:49:44.806Z,3.75
2023-04-16T16:52:11.570Z,2.00
2023-04-16T16:54:38.140Z,2.35
2023-04-16T16:57:04.723Z,3.63
2023-04-16T16:59:31.695Z,3.05
2023-04-16T17:01:58.523Z,2.15
2023-04-16T17:04:25.483Z,2.20
2023-04-16T17:06:52.402Z,2.08
2023-04-16T17:09:19.122Z,3.75
2023-04-16T17:11:45.788Z,2.20
2023-04-16T17:14:12.474Z,3.75
2023-04-16T17:16:41.182Z,3.10
2023-04-16T17:19:07.969Z,2.78
2023-04-16T17:21:34.651Z,7.47
2023-04-16T17:24:04.222Z,5.82
2023-04-16T17:26:31.948Z,6.20
2023-04-16T17:28:59.410Z,6.28
2023-04-16T17:31:27.358Z,3.70
2023-04-16T17:33:54.084Z,6.85
2023-04-16T17:36:23.858Z,4.68
2023-04-16T17:38:50.777Z,3.65
2023-04-16T17:41:21.441Z,3.70
2023-04-16T17:43:51.216Z,3.40
2023-04-16T17:46:18.261Z,4.13
2023-04-16T17:48:45.040Z,3.50
2023-04-16T17:51:20.082Z,4.10
2023-04-16T17:53:47.445Z,5.60
2023-04-16T17:56:16.673Z,4.90
2023-04-16T17:58:43.446Z,4.15
2023-04-16T18:01:11.202Z,2.80
2023-04-16T18:03:39.463Z,3.25
2023-04-16T18:06:06.217Z,2.35
2023-04-16T18:08:33.855Z,3.72
2023-04-16T18:11:00.479Z,3.03
2023-04-16T18:13:27.264Z,2.30
2023-04-16T18:15:55.309Z,2.10
2023-04-16T18:18:22.016Z,2.03
2023-04-16T18:20:48.771Z,1.98
2023-04-16T18:23:15.421Z,2.85
2023-04-16T18:25:42.221Z,2.53
2023-04-16T18:28:09.551Z,4.00
2023-04-16T18:30:40.044Z,4.32
2023-04-16T18:33:38.488Z,3.10
2023-04-16T18:35:53.729Z,3.70
2023-04-16T18:38:20.365Z,3.60
2023-04-16T18:40:47.561Z,4.15
2023-04-16T18:43:14.208Z,2.90
2023-04-16T18:45:41.774Z,2.72
2023-04-16T18:48:08.406Z,3.00
2023-04-16T18:50:35.428Z,3.58
2023-04-16T18:53:02.368Z,3.40
2023-04-16T18:55:30.301Z,4.38
2023-04-16T18:57:57.081Z,4.30
2023-04-16T19:00:23.694Z,3.78
2023-04-16T19:02:50.448Z,3.00
2023-04-16T19:05:17.305Z,3.60
2023-04-16T19:07:43.949Z,2.45
2023-04-16T19:10:10.715Z,2.40
2023-04-16T19:12:37.385Z,3.50
2023-04-16T19:15:05.141Z,2.88
2023-04-16T19:17:31.907Z,3.97
2023-04-16T19:19:58.601Z,3.70
2023-04-16T19:22:25.239Z,4.88
2023-04-16T19:24:51.856Z,5.07
2023-04-16T19:27:18.434Z,4.50
2023-04-16T19:29:46.717Z,4.15
2023-04-16T19:32:14.274Z,5.10
2023-04-16T19:34:41.026Z,5.63
2023-04-16T19:37:07.865Z,4.82
2023-04-16T19:39:34.527Z,4.72
2023-04-16T19:42:01.867Z,5.38
2023-04-16T19:44:28.526Z,5.32
2023-04-16T19:46:55.496Z,4.82
2023-04-16T19:49:22.168Z,4.05
2023-04-16T19:51:48.788Z,4.50
2023-04-16T19:54:15.690Z,3.80
2023-04-16T19:56:42.301Z,4.10
2023-04-16T19:59:09.459Z,4.68
2023-04-16T20:01:36.402Z,6.78
2023-04-16T20:04:03.094Z,6.10
2023-04-16T20:06:29.759Z,5.93
2023-04-16T20:08:57.431Z,6.72
2023-04-16T20:11:24.103Z,6.15
2023-04-16T20:13:50.783Z,5.75
2023-04-16T20:16:17.588Z,5.03
2023-04-16T20:18:46.193Z,4.88
2023-04-16T20:21:12.857Z,4.70
2023-04-16T20:23:39.499Z,6.00
2023-04-16T20:26:06.341Z,5.40
2023-04-16T20:28:32.914Z,6.78
2023-04-16T20:30:59.503Z,11.32
2023-04-16T20:33:26.155Z,6.13
2023-04-16T20:35:52.802Z,6.70
2023-04-16T20:38:23.765Z,7.13
2023-04-16T20:41:06.254Z,5.88
2023-04-16T20:43:38.643Z,5.40
2023-04-16T20:46:06.190Z,5.57
2023-04-16T20:48:33.269Z,5.47
2023-04-16T20:51:03.965Z,5.50
2023-04-16T20:53:32.516Z,6.47
2023-04-16T20:56:02.523Z,6.18
2023-04-16T20:58:29.828Z,6.20
2023-04-16T21:00:57.881Z,6.95
2023-04-16T21:03:25.295Z,6.97
2023-04-16T21:05:53.872Z,6.80
2023-04-16T21:08:21.386Z,7.32
2023-04-16T21:10:48.651Z,6.95
2023-04-16T21:13:15.398Z,6.20
2023-04-16T21:15:43.742Z,6.65
2023-04-16T21:18:11.302Z,6.93
2023-04-16T21:20:39.209Z,7.32
2023-04-16T21:23:06.483Z,7.32
2023-04-16T21:25:33.644Z,6.40
2023-04-16T21:28:00.656Z,6.88
2023-04-16T21:30:27.346Z,6.22
2023-04-16T21:32:54.118Z,6.53
2023-04-16T21:35:20.975Z,7.03
2023-04-16T21:37:47.607Z,7.15
2023-04-16T21:40:14.428Z,7.22
2023-04-16T21:42:42.458Z,6.50
2023-04-16T21:45:10.515Z,6.28
2023-04-16T21:47:37.866Z,6.60
2023-04-16T21:50:04.927Z,5.75
2023-04-16T21:52:32.943Z,6.10
2023-04-16T21:55:00.477Z,6.07
2023-04-16T21:57:27.237Z,5.90
2023-04-16T21:59:53.871Z,7.20
2023-04-16T22:02:20.555Z,6.95
2023-04-16T22:04:47.440Z,7.65
2023-04-16T22:07:16.854Z,7.15
2023-04-16T22:09:43.817Z,6.30
2023-04-16T22:12:10.540Z,6.28
2023-04-16T22:14:42.149Z,6.15
2023-04-16T22:17:13.013Z,6.28
2023-04-16T22:19:39.722Z,7.40
2023-04-16T22:22:06.342Z,7.18
2023-04-16T22:24:33.056Z,7.05
2023-04-16T22:26:59.692Z,6.28
2023-04-16T22:29:26.419Z,5.90
2023-04-16T22:31:53.218Z,5.80
2023-04-16T22:34:19.923Z,6.80
2023-04-16T22:36:47.578Z,7.05
2023-04-16T22:39:14.621Z,7.07
2023-04-16T22:41:41.628Z,7.18
2023-04-16T22:44:08.259Z,6.78
2023-04-16T22:46:35.174Z,6.43
2023-04-16T22:49:02.714Z,6.72
2023-04-16T22:51:30.189Z,6.57
2023-04-16T22:53:58.998Z,7.03
2023-04-16T22:56:28.954Z,6.18
2023-04-16T22:58:55.669Z,6.55
2023-04-16T23:01:22.733Z,6.05
2023-04-16T23:03:49.483Z,6.55
2023-04-16T23:06:16.358Z,6.55
2023-04-16T23:08:42.978Z,7.35
2023-04-16T23:11:09.710Z,6.75
2023-04-16T23:13:36.369Z,6.40
2023-04-16T23:16:03.025Z,6.15
2023-04-16T23:18:29.716Z,6.32
2023-04-16T23:20:56.467Z,6.07
2023-04-16T23:23:23.096Z,6.82
2023-04-16T23:25:53.227Z,6.60
2023-04-16T23:28:20.090Z,7.20
2023-04-16T23:30:46.666Z,6.57
2023-04-16T23:33:13.380Z,5.55
2023-04-16T23:35:39.981Z,6.28
2023-04-16T23:38:06.589Z,6.68
2023-04-16T23:40:33.186Z,7.00
2023-04-16T23:42:59.805Z,6.68
2023-04-16T23:45:26.421Z,6.93
2023-04-16T23:47:53.165Z,7.15
2023-04-16T23:50:19.887Z,7.20
2023-04-16T23:52:46.514Z,8.85
2023-04-16T23:55:13.168Z,8.68
2023-04-16T23:57:39.815Z,7.80
